sensor_id;sensor_type;location;lat;lon;timestamp;P1;durP1;ratioP1;P2;durP2;ratioP2
24859;SDS011;12936;52.006;4.350;2022-09-24T00:02:16;13.95;;;10.98;;
24859;SDS011;12936;52.006;4.350;2022-09-24T00:04:44;14.23;;;11.07;;
24859;SDS011;12936;52.006;4.350;2022-09-24T00:07:12;12.13;;;9.98;;
24859;SDS011;12936;52.006;4.350;2022-09-24T00:09:41;14.93;;;10.77;;
24859;SDS011;12936;52.006;4.350;2022-09-24T00:12:09;13.18;;;10.27;;
24859;SDS011;12936;52.006;4.350;2022-09-24T00:14:40;13.25;;;10.13;;
24859;SDS011;12936;52.006;4.350;2022-09-24T00:17:10;12.43;;;10.70;;
24859;SDS011;12936;52.006;4.350;2022-09-24T00:19:39;13.93;;;11.00;;
24859;SDS011;12936;52.006;4.350;2022-09-24T00:22:07;13.15;;;10.95;;
24859;SDS011;12936;52.006;4.350;2022-09-24T00:24:36;12.55;;;10.50;;
24859;SDS011;12936;52.006;4.350;2022-09-24T00:27:23;14.17;;;10.70;;
24859;SDS011;12936;52.006;4.350;2022-09-24T00:29:53;14.07;;;11.00;;
24859;SDS011;12936;52.006;4.350;2022-09-24T00:32:21;18.52;;;11.02;;
24859;SDS011;12936;52.006;4.350;2022-09-24T00:34:50;13.00;;;10.20;;
24859;SDS011;12936;52.006;4.350;2022-09-24T00:37:39;12.85;;;10.27;;
24859;SDS011;12936;52.006;4.350;2022-09-24T00:40:08;14.05;;;10.73;;
24859;SDS011;12936;52.006;4.350;2022-09-24T00:42:36;13.80;;;10.40;;
24859;SDS011;12936;52.006;4.350;2022-09-24T00:45:07;12.75;;;10.02;;
24859;SDS011;12936;52.006;4.350;2022-09-24T00:47:36;13.15;;;10.15;;
24859;SDS011;12936;52.006;4.350;2022-09-24T00:50:12;13.70;;;10.00;;
24859;SDS011;12936;52.006;4.350;2022-09-24T00:52:42;13.32;;;10.57;;
24859;SDS011;12936;52.006;4.350;2022-09-24T00:55:12;12.25;;;9.88;;
24859;SDS011;12936;52.006;4.350;2022-09-24T00:57:41;12.48;;;9.93;;
24859;SDS011;12936;52.006;4.350;2022-09-24T01:00:12;13.00;;;9.90;;
24859;SDS011;12936;52.006;4.350;2022-09-24T01:02:42;12.38;;;10.05;;
24859;SDS011;12936;52.006;4.350;2022-09-24T01:05:11;13.18;;;10.07;;
24859;SDS011;12936;52.006;4.350;2022-09-24T01:07:40;13.80;;;10.67;;
24859;SDS011;12936;52.006;4.350;2022-09-24T01:10:08;12.80;;;10.30;;
24859;SDS011;12936;52.006;4.350;2022-09-24T01:12:39;13.47;;;10.23;;
24859;SDS011;12936;52.006;4.350;2022-09-24T01:15:15;13.80;;;10.13;;
24859;SDS011;12936;52.006;4.350;2022-09-24T01:17:45;12.75;;;9.95;;
24859;SDS011;12936;52.006;4.350;2022-09-24T01:23:02;11.88;;;9.68;;
24859;SDS011;12936;52.006;4.350;2022-09-24T01:25:36;12.90;;;10.40;;
24859;SDS011;12936;52.006;4.350;2022-09-24T01:28:14;14.10;;;10.87;;
24859;SDS011;12936;52.006;4.350;2022-09-24T01:30:47;13.77;;;11.03;;
24859;SDS011;12936;52.006;4.350;2022-09-24T01:33:19;13.02;;;10.80;;
24859;SDS011;12936;52.006;4.350;2022-09-24T01:35:49;12.67;;;10.60;;
24859;SDS011;12936;52.006;4.350;2022-09-24T01:38:20;13.50;;;10.57;;
24859;SDS011;12936;52.006;4.350;2022-09-24T01:40:49;14.33;;;11.43;;
24859;SDS011;12936;52.006;4.350;2022-09-24T01:43:19;14.95;;;11.63;;
24859;SDS011;12936;52.006;4.350;2022-09-24T01:45:49;16.63;;;12.10;;
24859;SDS011;12936;52.006;4.350;2022-09-24T01:48:20;15.07;;;12.02;;
24859;SDS011;12936;52.006;4.350;2022-09-24T01:50:49;14.10;;;11.48;;
24859;SDS011;12936;52.006;4.350;2022-09-24T01:53:20;13.20;;;11.43;;
24859;SDS011;12936;52.006;4.350;2022-09-24T01:55:50;15.63;;;12.10;;
24859;SDS011;12936;52.006;4.350;2022-09-24T01:58:20;15.00;;;11.53;;
24859;SDS011;12936;52.006;4.350;2022-09-24T02:00:52;13.90;;;11.73;;
24859;SDS011;12936;52.006;4.350;2022-09-24T02:03:24;14.47;;;11.53;;
24859;SDS011;12936;52.006;4.350;2022-09-24T02:05:57;15.33;;;11.23;;
24859;SDS011;12936;52.006;4.350;2022-09-24T02:08:28;14.83;;;11.93;;
24859;SDS011;12936;52.006;4.350;2022-09-24T02:11:00;14.15;;;12.07;;
24859;SDS011;12936;52.006;4.350;2022-09-24T02:13:32;15.27;;;12.63;;
24859;SDS011;12936;52.006;4.350;2022-09-24T02:16:06;15.50;;;12.50;;
24859;SDS011;12936;52.006;4.350;2022-09-24T02:18:37;17.63;;;13.05;;
24859;SDS011;12936;52.006;4.350;2022-09-24T02:21:06;18.33;;;14.52;;
24859;SDS011;12936;52.006;4.350;2022-09-24T02:23:37;18.20;;;14.68;;
24859;SDS011;12936;52.006;4.350;2022-09-24T02:26:07;18.35;;;13.93;;
24859;SDS011;12936;52.006;4.350;2022-09-24T02:28:35;16.58;;;13.48;;
24859;SDS011;12936;52.006;4.350;2022-09-24T02:31:06;19.03;;;14.47;;
24859;SDS011;12936;52.006;4.350;2022-09-24T02:33:35;16.95;;;14.18;;
24859;SDS011;12936;52.006;4.350;2022-09-24T02:36:23;20.57;;;15.57;;
24859;SDS011;12936;52.006;4.350;2022-09-24T02:38:51;20.75;;;15.82;;
24859;SDS011;12936;52.006;4.350;2022-09-24T02:41:20;17.00;;;14.57;;
24859;SDS011;12936;52.006;4.350;2022-09-24T02:43:49;19.53;;;15.70;;
24859;SDS011;12936;52.006;4.350;2022-09-24T02:46:19;18.43;;;15.00;;
24859;SDS011;12936;52.006;4.350;2022-09-24T02:48:47;19.17;;;15.13;;
24859;SDS011;12936;52.006;4.350;2022-09-24T02:51:16;20.60;;;15.20;;
24859;SDS011;12936;52.006;4.350;2022-09-24T02:53:45;21.90;;;15.82;;
24859;SDS011;12936;52.006;4.350;2022-09-24T02:56:13;21.10;;;15.87;;
24859;SDS011;12936;52.006;4.350;2022-09-24T02:58:42;23.05;;;16.15;;
24859;SDS011;12936;52.006;4.350;2022-09-24T03:01:10;19.80;;;16.00;;
24859;SDS011;12936;52.006;4.350;2022-09-24T03:03:39;22.13;;;16.13;;
24859;SDS011;12936;52.006;4.350;2022-09-24T03:06:08;20.85;;;16.27;;
24859;SDS011;12936;52.006;4.350;2022-09-24T03:08:37;19.53;;;16.37;;
24859;SDS011;12936;52.006;4.350;2022-09-24T03:11:06;21.40;;;16.43;;
24859;SDS011;12936;52.006;4.350;2022-09-24T03:13:40;21.37;;;16.63;;
24859;SDS011;12936;52.006;4.350;2022-09-24T03:16:08;23.73;;;17.17;;
24859;SDS011;12936;52.006;4.350;2022-09-24T03:18:37;19.47;;;15.30;;
24859;SDS011;12936;52.006;4.350;2022-09-24T03:21:07;21.08;;;16.55;;
24859;SDS011;12936;52.006;4.350;2022-09-24T03:23:37;20.13;;;16.27;;
24859;SDS011;12936;52.006;4.350;2022-09-24T03:26:05;19.17;;;15.77;;
24859;SDS011;12936;52.006;4.350;2022-09-24T03:28:33;21.65;;;17.33;;
24859;SDS011;12936;52.006;4.350;2022-09-24T03:31:02;21.27;;;15.67;;
24859;SDS011;12936;52.006;4.350;2022-09-24T03:33:31;20.33;;;15.60;;
24859;SDS011;12936;52.006;4.350;2022-09-24T03:36:00;25.60;;;17.33;;
24859;SDS011;12936;52.006;4.350;2022-09-24T03:38:30;19.77;;;16.00;;
24859;SDS011;12936;52.006;4.350;2022-09-24T03:40:59;21.73;;;16.93;;
24859;SDS011;12936;52.006;4.350;2022-09-24T03:43:28;22.67;;;18.27;;
24859;SDS011;12936;52.006;4.350;2022-09-24T03:45:56;26.30;;;19.97;;
24859;SDS011;12936;52.006;4.350;2022-09-24T03:48:25;26.80;;;19.63;;
24859;SDS011;12936;52.006;4.350;2022-09-24T03:50:55;23.87;;;18.90;;
24859;SDS011;12936;52.006;4.350;2022-09-24T03:53:23;28.17;;;20.67;;
24859;SDS011;12936;52.006;4.350;2022-09-24T03:55:53;24.30;;;19.30;;
24859;SDS011;12936;52.006;4.350;2022-09-24T03:58:22;24.33;;;19.53;;
24859;SDS011;12936;52.006;4.350;2022-09-24T04:00:51;26.20;;;19.80;;
24859;SDS011;12936;52.006;4.350;2022-09-24T04:03:20;26.20;;;19.77;;
24859;SDS011;12936;52.006;4.350;2022-09-24T04:05:48;27.73;;;20.73;;
24859;SDS011;12936;52.006;4.350;2022-09-24T04:08:17;25.60;;;19.93;;
24859;SDS011;12936;52.006;4.350;2022-09-24T04:10:47;26.60;;;19.20;;
24859;SDS011;12936;52.006;4.350;2022-09-24T04:13:17;27.13;;;19.60;;
24859;SDS011;12936;52.006;4.350;2022-09-24T04:15:48;29.38;;;20.27;;
24859;SDS011;12936;52.006;4.350;2022-09-24T04:18:16;27.95;;;20.17;;
24859;SDS011;12936;52.006;4.350;2022-09-24T04:20:45;29.80;;;21.87;;
24859;SDS011;12936;52.006;4.350;2022-09-24T04:23:13;30.13;;;21.00;;
24859;SDS011;12936;52.006;4.350;2022-09-24T04:25:42;32.27;;;22.30;;
24859;SDS011;12936;52.006;4.350;2022-09-24T04:28:10;36.47;;;22.43;;
24859;SDS011;12936;52.006;4.350;2022-09-24T04:30:40;35.17;;;23.00;;
24859;SDS011;12936;52.006;4.350;2022-09-24T04:33:09;39.77;;;23.70;;
24859;SDS011;12936;52.006;4.350;2022-09-24T04:35:37;38.17;;;23.63;;
24859;SDS011;12936;52.006;4.350;2022-09-24T04:38:06;36.37;;;23.80;;
24859;SDS011;12936;52.006;4.350;2022-09-24T04:40:35;35.77;;;22.53;;
24859;SDS011;12936;52.006;4.350;2022-09-24T04:43:05;33.37;;;22.40;;
24859;SDS011;12936;52.006;4.350;2022-09-24T04:45:33;31.35;;;21.10;;
24859;SDS011;12936;52.006;4.350;2022-09-24T04:48:03;27.70;;;17.50;;
24859;SDS011;12936;52.006;4.350;2022-09-24T04:50:31;29.07;;;17.33;;
24859;SDS011;12936;52.006;4.350;2022-09-24T04:53:00;21.50;;;15.00;;
24859;SDS011;12936;52.006;4.350;2022-09-24T04:55:28;22.17;;;14.43;;
24859;SDS011;12936;52.006;4.350;2022-09-24T04:57:57;19.73;;;13.63;;
24859;SDS011;12936;52.006;4.350;2022-09-24T05:00:26;17.37;;;11.37;;
24859;SDS011;12936;52.006;4.350;2022-09-24T05:02:57;14.68;;;10.55;;
24859;SDS011;12936;52.006;4.350;2022-09-24T05:05:27;15.13;;;9.97;;
24859;SDS011;12936;52.006;4.350;2022-09-24T05:07:55;12.23;;;9.30;;
24859;SDS011;12936;52.006;4.350;2022-09-24T05:10:24;13.80;;;9.00;;
24859;SDS011;12936;52.006;4.350;2022-09-24T05:12:52;10.30;;;7.87;;
24859;SDS011;12936;52.006;4.350;2022-09-24T05:15:21;10.73;;;6.43;;
24859;SDS011;12936;52.006;4.350;2022-09-24T05:17:49;7.77;;;5.60;;
24859;SDS011;12936;52.006;4.350;2022-09-24T05:20:18;8.70;;;6.03;;
24859;SDS011;12936;52.006;4.350;2022-09-24T05:22:48;7.67;;;5.10;;
24859;SDS011;12936;52.006;4.350;2022-09-24T05:25:17;6.73;;;4.63;;
24859;SDS011;12936;52.006;4.350;2022-09-24T05:27:45;6.07;;;4.13;;
24859;SDS011;12936;52.006;4.350;2022-09-24T05:30:13;5.30;;;3.90;;
24859;SDS011;12936;52.006;4.350;2022-09-24T05:32:44;5.17;;;3.30;;
24859;SDS011;12936;52.006;4.350;2022-09-24T05:35:14;5.00;;;3.20;;
24859;SDS011;12936;52.006;4.350;2022-09-24T05:37:43;5.70;;;3.43;;
24859;SDS011;12936;52.006;4.350;2022-09-24T05:40:15;6.10;;;2.70;;
24859;SDS011;12936;52.006;4.350;2022-09-24T05:43:02;4.07;;;2.30;;
24859;SDS011;12936;52.006;4.350;2022-09-24T05:45:31;4.67;;;2.00;;
24859;SDS011;12936;52.006;4.350;2022-09-24T05:47:59;4.53;;;1.67;;
24859;SDS011;12936;52.006;4.350;2022-09-24T05:50:28;4.83;;;1.87;;
24859;SDS011;12936;52.006;4.350;2022-09-24T05:53:00;6.43;;;2.07;;
24859;SDS011;12936;52.006;4.350;2022-09-24T05:55:29;6.40;;;2.13;;
24859;SDS011;12936;52.006;4.350;2022-09-24T05:58:02;4.90;;;1.73;;
24859;SDS011;12936;52.006;4.350;2022-09-24T06:00:30;5.73;;;1.80;;
24859;SDS011;12936;52.006;4.350;2022-09-24T06:03:02;3.53;;;1.53;;
24859;SDS011;12936;52.006;4.350;2022-09-24T06:05:33;5.47;;;1.60;;
24859;SDS011;12936;52.006;4.350;2022-09-24T06:08:01;4.70;;;1.87;;
24859;SDS011;12936;52.006;4.350;2022-09-24T06:10:31;9.97;;;2.23;;
24859;SDS011;12936;52.006;4.350;2022-09-24T06:12:59;6.57;;;1.60;;
24859;SDS011;12936;52.006;4.350;2022-09-24T06:15:27;3.00;;;1.73;;
24859;SDS011;12936;52.006;4.350;2022-09-24T06:17:56;3.03;;;1.80;;
24859;SDS011;12936;52.006;4.350;2022-09-24T06:20:24;6.57;;;1.67;;
24859;SDS011;12936;52.006;4.350;2022-09-24T06:22:53;2.67;;;1.40;;
24859;SDS011;12936;52.006;4.350;2022-09-24T06:25:22;5.33;;;1.43;;
24859;SDS011;12936;52.006;4.350;2022-09-24T06:27:56;2.83;;;1.50;;
24859;SDS011;12936;52.006;4.350;2022-09-24T06:30:26;5.80;;;1.53;;
24859;SDS011;12936;52.006;4.350;2022-09-24T06:32:59;6.70;;;1.67;;
24859;SDS011;12936;52.006;4.350;2022-09-24T06:35:27;5.17;;;1.70;;
24859;SDS011;12936;52.006;4.350;2022-09-24T06:37:56;4.57;;;1.40;;
24859;SDS011;12936;52.006;4.350;2022-09-24T06:40:24;5.50;;;1.63;;
24859;SDS011;12936;52.006;4.350;2022-09-24T06:43:02;8.00;;;1.53;;
24859;SDS011;12936;52.006;4.350;2022-09-24T06:45:30;5.87;;;1.30;;
24859;SDS011;12936;52.006;4.350;2022-09-24T06:47:59;6.13;;;1.60;;
24859;SDS011;12936;52.006;4.350;2022-09-24T06:50:28;5.37;;;1.40;;
24859;SDS011;12936;52.006;4.350;2022-09-24T06:52:56;6.63;;;1.70;;
24859;SDS011;12936;52.006;4.350;2022-09-24T06:55:25;4.57;;;1.60;;
24859;SDS011;12936;52.006;4.350;2022-09-24T06:58:01;5.57;;;1.42;;
24859;SDS011;12936;52.006;4.350;2022-09-24T07:00:30;3.83;;;1.33;;
24859;SDS011;12936;52.006;4.350;2022-09-24T07:02:58;7.03;;;1.27;;
24859;SDS011;12936;52.006;4.350;2022-09-24T07:05:26;8.60;;;1.67;;
24859;SDS011;12936;52.006;4.350;2022-09-24T07:07:55;7.53;;;1.60;;
24859;SDS011;12936;52.006;4.350;2022-09-24T07:10:23;5.07;;;1.63;;
24859;SDS011;12936;52.006;4.350;2022-09-24T07:12:52;7.83;;;1.67;;
24859;SDS011;12936;52.006;4.350;2022-09-24T07:15:22;6.37;;;1.30;;
24859;SDS011;12936;52.006;4.350;2022-09-24T07:17:53;8.77;;;1.50;;
24859;SDS011;12936;52.006;4.350;2022-09-24T07:20:21;6.80;;;1.87;;
24859;SDS011;12936;52.006;4.350;2022-09-24T07:22:53;11.30;;;1.93;;
24859;SDS011;12936;52.006;4.350;2022-09-24T07:25:22;11.57;;;1.97;;
24859;SDS011;12936;52.006;4.350;2022-09-24T07:27:50;10.60;;;1.53;;
24859;SDS011;12936;52.006;4.350;2022-09-24T07:30:18;6.30;;;1.60;;
24859;SDS011;12936;52.006;4.350;2022-09-24T07:32:48;13.00;;;1.50;;
24859;SDS011;12936;52.006;4.350;2022-09-24T07:35:21;12.33;;;2.20;;
24859;SDS011;12936;52.006;4.350;2022-09-24T07:37:54;6.53;;;1.37;;
24859;SDS011;12936;52.006;4.350;2022-09-24T07:40:23;7.93;;;2.20;;
24859;SDS011;12936;52.006;4.350;2022-09-24T07:42:52;7.57;;;1.70;;
24859;SDS011;12936;52.006;4.350;2022-09-24T07:45:21;10.13;;;1.93;;
24859;SDS011;12936;52.006;4.350;2022-09-24T07:47:56;6.13;;;1.83;;
24859;SDS011;12936;52.006;4.350;2022-09-24T07:50:25;10.23;;;1.53;;
24859;SDS011;12936;52.006;4.350;2022-09-24T07:52:53;7.97;;;1.53;;
24859;SDS011;12936;52.006;4.350;2022-09-24T07:55:22;9.45;;;1.52;;
24859;SDS011;12936;52.006;4.350;2022-09-24T07:57:51;7.20;;;1.77;;
24859;SDS011;12936;52.006;4.350;2022-09-24T08:00:20;6.73;;;1.63;;
24859;SDS011;12936;52.006;4.350;2022-09-24T08:02:49;6.53;;;1.47;;
24859;SDS011;12936;52.006;4.350;2022-09-24T08:05:20;10.93;;;1.63;;
24859;SDS011;12936;52.006;4.350;2022-09-24T08:07:52;8.43;;;1.63;;
24859;SDS011;12936;52.006;4.350;2022-09-24T08:10:20;8.50;;;1.77;;
24859;SDS011;12936;52.006;4.350;2022-09-24T08:12:49;8.20;;;1.77;;
24859;SDS011;12936;52.006;4.350;2022-09-24T08:15:17;5.83;;;1.50;;
24859;SDS011;12936;52.006;4.350;2022-09-24T08:17:45;9.77;;;1.63;;
24859;SDS011;12936;52.006;4.350;2022-09-24T08:20:14;12.17;;;1.60;;
24859;SDS011;12936;52.006;4.350;2022-09-24T08:22:43;9.73;;;1.53;;
24859;SDS011;12936;52.006;4.350;2022-09-24T08:25:12;10.67;;;1.93;;
24859;SDS011;12936;52.006;4.350;2022-09-24T08:27:40;14.70;;;2.03;;
24859;SDS011;12936;52.006;4.350;2022-09-24T08:30:09;12.57;;;1.90;;
24859;SDS011;12936;52.006;4.350;2022-09-24T08:32:37;6.80;;;1.50;;
24859;SDS011;12936;52.006;4.350;2022-09-24T08:35:06;11.10;;;2.53;;
24859;SDS011;12936;52.006;4.350;2022-09-24T08:37:34;13.60;;;2.30;;
24859;SDS011;12936;52.006;4.350;2022-09-24T08:40:06;12.07;;;2.00;;
24859;SDS011;12936;52.006;4.350;2022-09-24T08:42:36;7.13;;;1.77;;
24859;SDS011;12936;52.006;4.350;2022-09-24T08:45:10;6.33;;;1.53;;
24859;SDS011;12936;52.006;4.350;2022-09-24T08:47:57;8.57;;;1.60;;
24859;SDS011;12936;52.006;4.350;2022-09-24T08:50:28;13.40;;;1.70;;
24859;SDS011;12936;52.006;4.350;2022-09-24T08:53:00;10.00;;;1.93;;
24859;SDS011;12936;52.006;4.350;2022-09-24T08:55:32;11.77;;;2.23;;
24859;SDS011;12936;52.006;4.350;2022-09-24T08:58:04;13.50;;;1.73;;
24859;SDS011;12936;52.006;4.350;2022-09-24T09:00:38;8.82;;;1.83;;
24859;SDS011;12936;52.006;4.350;2022-09-24T09:03:07;8.30;;;1.93;;
24859;SDS011;12936;52.006;4.350;2022-09-24T09:05:43;11.27;;;1.93;;
24859;SDS011;12936;52.006;4.350;2022-09-24T09:08:17;11.10;;;2.00;;
24859;SDS011;12936;52.006;4.350;2022-09-24T09:11:09;11.63;;;1.80;;
24859;SDS011;12936;52.006;4.350;2022-09-24T09:13:40;9.10;;;1.70;;
24859;SDS011;12936;52.006;4.350;2022-09-24T09:16:15;10.80;;;1.67;;
24859;SDS011;12936;52.006;4.350;2022-09-24T09:18:46;10.65;;;1.90;;
24859;SDS011;12936;52.006;4.350;2022-09-24T09:21:15;13.23;;;1.90;;
24859;SDS011;12936;52.006;4.350;2022-09-24T09:23:45;15.07;;;1.98;;
24859;SDS011;12936;52.006;4.350;2022-09-24T09:26:15;8.03;;;1.43;;
24859;SDS011;12936;52.006;4.350;2022-09-24T09:28:45;15.57;;;1.53;;
24859;SDS011;12936;52.006;4.350;2022-09-24T09:31:17;7.97;;;1.33;;
24859;SDS011;12936;52.006;4.350;2022-09-24T09:33:54;8.97;;;1.37;;
24859;SDS011;12936;52.006;4.350;2022-09-24T09:36:38;6.73;;;1.20;;
24859;SDS011;12936;52.006;4.350;2022-09-24T09:39:18;6.30;;;1.40;;
24859;SDS011;12936;52.006;4.350;2022-09-24T09:41:51;6.27;;;1.20;;
24859;SDS011;12936;52.006;4.350;2022-09-24T09:44:21;7.17;;;1.43;;
24859;SDS011;12936;52.006;4.350;2022-09-24T09:46:50;10.80;;;1.30;;
24859;SDS011;12936;52.006;4.350;2022-09-24T09:49:19;6.87;;;1.53;;
24859;SDS011;12936;52.006;4.350;2022-09-24T09:51:49;8.17;;;1.43;;
24859;SDS011;12936;52.006;4.350;2022-09-24T09:54:20;9.70;;;1.27;;
24859;SDS011;12936;52.006;4.350;2022-09-24T09:56:50;7.93;;;1.20;;
24859;SDS011;12936;52.006;4.350;2022-09-24T09:59:19;9.23;;;1.70;;
24859;SDS011;12936;52.006;4.350;2022-09-24T10:01:54;9.15;;;1.35;;
24859;SDS011;12936;52.006;4.350;2022-09-24T10:04:26;10.63;;;1.83;;
24859;SDS011;12936;52.006;4.350;2022-09-24T10:07:05;8.27;;;1.60;;
24859;SDS011;12936;52.006;4.350;2022-09-24T10:09:34;7.55;;;1.60;;
24859;SDS011;12936;52.006;4.350;2022-09-24T10:12:08;8.77;;;1.58;;
24859;SDS011;12936;52.006;4.350;2022-09-24T10:14:39;7.90;;;1.33;;
24859;SDS011;12936;52.006;4.350;2022-09-24T10:17:09;4.87;;;1.33;;
24859;SDS011;12936;52.006;4.350;2022-09-24T10:19:38;7.30;;;1.53;;
24859;SDS011;12936;52.006;4.350;2022-09-24T10:22:08;7.80;;;1.15;;
24859;SDS011;12936;52.006;4.350;2022-09-24T10:24:39;8.03;;;1.20;;
24859;SDS011;12936;52.006;4.350;2022-09-24T10:27:10;8.13;;;1.30;;
24859;SDS011;12936;52.006;4.350;2022-09-24T10:29:39;8.23;;;1.40;;
24859;SDS011;12936;52.006;4.350;2022-09-24T10:32:25;6.53;;;1.23;;
24859;SDS011;12936;52.006;4.350;2022-09-24T10:34:55;8.30;;;1.43;;
24859;SDS011;12936;52.006;4.350;2022-09-24T10:37:24;6.03;;;1.23;;
24859;SDS011;12936;52.006;4.350;2022-09-24T10:39:56;10.10;;;1.27;;
24859;SDS011;12936;52.006;4.350;2022-09-24T10:42:27;11.00;;;1.48;;
24859;SDS011;12936;52.006;4.350;2022-09-24T10:44:56;4.93;;;1.00;;
24859;SDS011;12936;52.006;4.350;2022-09-24T10:47:26;7.10;;;1.20;;
24859;SDS011;12936;52.006;4.350;2022-09-24T10:50:02;7.85;;;1.30;;
24859;SDS011;12936;52.006;4.350;2022-09-24T10:52:45;7.30;;;1.17;;
24859;SDS011;12936;52.006;4.350;2022-09-24T10:55:16;11.23;;;1.63;;
24859;SDS011;12936;52.006;4.350;2022-09-24T10:57:53;11.15;;;1.70;;
24859;SDS011;12936;52.006;4.350;2022-09-24T11:00:26;4.93;;;1.10;;
24859;SDS011;12936;52.006;4.350;2022-09-24T11:05:44;10.27;;;1.85;;
24859;SDS011;12936;52.006;4.350;2022-09-24T11:08:20;4.80;;;1.00;;
24859;SDS011;12936;52.006;4.350;2022-09-24T11:10:55;4.10;;;1.27;;
24859;SDS011;12936;52.006;4.350;2022-09-24T11:13:27;9.53;;;1.67;;
24859;SDS011;12936;52.006;4.350;2022-09-24T11:16:05;4.88;;;1.15;;
24859;SDS011;12936;52.006;4.350;2022-09-24T11:18:39;9.05;;;1.52;;
24859;SDS011;12936;52.006;4.350;2022-09-24T11:21:14;7.73;;;1.63;;
24859;SDS011;12936;52.006;4.350;2022-09-24T11:26:44;4.00;;;1.20;;
24859;SDS011;12936;52.006;4.350;2022-09-24T11:29:24;5.73;;;1.20;;
24859;SDS011;12936;52.006;4.350;2022-09-24T11:32:00;6.17;;;1.33;;
24859;SDS011;12936;52.006;4.350;2022-09-24T11:34:41;7.73;;;1.50;;
24859;SDS011;12936;52.006;4.350;2022-09-24T11:37:16;8.30;;;1.23;;
24859;SDS011;12936;52.006;4.350;2022-09-24T11:39:53;4.23;;;1.00;;
24859;SDS011;12936;52.006;4.350;2022-09-24T11:42:26;7.83;;;1.60;;
24859;SDS011;12936;52.006;4.350;2022-09-24T11:45:01;5.65;;;1.50;;
24859;SDS011;12936;52.006;4.350;2022-09-24T11:47:35;8.23;;;1.90;;
24859;SDS011;12936;52.006;4.350;2022-09-24T11:50:16;6.20;;;1.33;;
24859;SDS011;12936;52.006;4.350;2022-09-24T11:52:49;6.93;;;1.23;;
24859;SDS011;12936;52.006;4.350;2022-09-24T11:55:20;6.55;;;1.40;;
24859;SDS011;12936;52.006;4.350;2022-09-24T11:57:51;5.65;;;1.15;;
24859;SDS011;12936;52.006;4.350;2022-09-24T12:00:22;9.90;;;1.58;;
24859;SDS011;12936;52.006;4.350;2022-09-24T12:02:51;10.70;;;1.67;;
24859;SDS011;12936;52.006;4.350;2022-09-24T12:05:25;10.07;;;1.57;;
24859;SDS011;12936;52.006;4.350;2022-09-24T12:07:56;6.18;;;1.42;;
24859;SDS011;12936;52.006;4.350;2022-09-24T12:10:27;7.43;;;1.65;;
24859;SDS011;12936;52.006;4.350;2022-09-24T12:12:59;10.40;;;1.60;;
24859;SDS011;12936;52.006;4.350;2022-09-24T12:15:32;6.33;;;1.50;;
24859;SDS011;12936;52.006;4.350;2022-09-24T12:18:05;6.03;;;1.42;;
24859;SDS011;12936;52.006;4.350;2022-09-24T12:20:39;5.75;;;1.35;;
24859;SDS011;12936;52.006;4.350;2022-09-24T12:23:10;8.82;;;1.48;;
24859;SDS011;12936;52.006;4.350;2022-09-24T12:25:41;5.47;;;1.58;;
24859;SDS011;12936;52.006;4.350;2022-09-24T12:28:10;6.00;;;1.15;;
24859;SDS011;12936;52.006;4.350;2022-09-24T12:31:02;8.93;;;1.20;;
24859;SDS011;12936;52.006;4.350;2022-09-24T12:33:51;4.80;;;1.20;;
24859;SDS011;12936;52.006;4.350;2022-09-24T12:36:33;8.48;;;1.52;;
24859;SDS011;12936;52.006;4.350;2022-09-24T12:39:06;11.13;;;1.73;;
24859;SDS011;12936;52.006;4.350;2022-09-24T12:41:35;13.65;;;1.40;;
24859;SDS011;12936;52.006;4.350;2022-09-24T12:44:05;8.98;;;1.33;;
24859;SDS011;12936;52.006;4.350;2022-09-24T12:46:38;8.38;;;1.17;;
24859;SDS011;12936;52.006;4.350;2022-09-24T12:49:15;5.13;;;1.30;;
24859;SDS011;12936;52.006;4.350;2022-09-24T12:51:45;6.63;;;1.30;;
24859;SDS011;12936;52.006;4.350;2022-09-24T12:54:19;8.73;;;1.13;;
24859;SDS011;12936;52.006;4.350;2022-09-24T12:57:03;6.88;;;1.40;;
24859;SDS011;12936;52.006;4.350;2022-09-24T12:59:31;8.98;;;1.83;;
24859;SDS011;12936;52.006;4.350;2022-09-24T13:02:11;6.30;;;1.92;;
24859;SDS011;12936;52.006;4.350;2022-09-24T13:04:42;9.05;;;1.17;;
24859;SDS011;12936;52.006;4.350;2022-09-24T13:07:30;5.22;;;1.70;;
24859;SDS011;12936;52.006;4.350;2022-09-24T13:12:54;6.82;;;1.00;;
24859;SDS011;12936;52.006;4.350;2022-09-24T13:15:25;7.07;;;0.95;;
24859;SDS011;12936;52.006;4.350;2022-09-24T13:18:02;7.23;;;1.47;;
24859;SDS011;12936;52.006;4.350;2022-09-24T13:20:31;5.20;;;1.20;;
24859;SDS011;12936;52.006;4.350;2022-09-24T13:23:11;4.13;;;0.80;;
24859;SDS011;12936;52.006;4.350;2022-09-24T13:25:40;8.70;;;1.48;;
24859;SDS011;12936;52.006;4.350;2022-09-24T13:28:21;5.70;;;0.98;;
24859;SDS011;12936;52.006;4.350;2022-09-24T13:30:52;6.50;;;1.10;;
24859;SDS011;12936;52.006;4.350;2022-09-24T13:33:23;6.85;;;1.05;;
24859;SDS011;12936;52.006;4.350;2022-09-24T13:36:01;5.22;;;1.10;;
24859;SDS011;12936;52.006;4.350;2022-09-24T13:38:32;3.92;;;1.08;;
24859;SDS011;12936;52.006;4.350;2022-09-24T13:41:03;5.57;;;1.30;;
24859;SDS011;12936;52.006;4.350;2022-09-24T13:43:37;6.13;;;1.00;;
24859;SDS011;12936;52.006;4.350;2022-09-24T13:46:09;7.70;;;1.15;;
24859;SDS011;12936;52.006;4.350;2022-09-24T13:48:41;3.40;;;1.02;;
24859;SDS011;12936;52.006;4.350;2022-09-24T13:51:12;6.70;;;1.25;;
24859;SDS011;12936;52.006;4.350;2022-09-24T13:53:41;3.58;;;0.90;;
24859;SDS011;12936;52.006;4.350;2022-09-24T13:56:11;5.72;;;0.98;;
24859;SDS011;12936;52.006;4.350;2022-09-24T13:58:40;5.25;;;1.20;;
24859;SDS011;12936;52.006;4.350;2022-09-24T14:01:12;5.10;;;0.90;;
24859;SDS011;12936;52.006;4.350;2022-09-24T14:03:49;5.80;;;1.13;;
24859;SDS011;12936;52.006;4.350;2022-09-24T14:06:18;4.78;;;0.65;;
24859;SDS011;12936;52.006;4.350;2022-09-24T14:08:48;8.00;;;0.98;;
24859;SDS011;12936;52.006;4.350;2022-09-24T14:11:17;3.50;;;0.70;;
24859;SDS011;12936;52.006;4.350;2022-09-24T14:13:46;8.00;;;1.42;;
24859;SDS011;12936;52.006;4.350;2022-09-24T14:16:14;5.53;;;1.10;;
24859;SDS011;12936;52.006;4.350;2022-09-24T14:18:45;4.00;;;1.02;;
24859;SDS011;12936;52.006;4.350;2022-09-24T14:21:15;6.00;;;1.30;;
24859;SDS011;12936;52.006;4.350;2022-09-24T14:23:47;4.45;;;0.80;;
24859;SDS011;12936;52.006;4.350;2022-09-24T14:26:21;3.88;;;0.90;;
24859;SDS011;12936;52.006;4.350;2022-09-24T14:28:51;6.88;;;0.77;;
24859;SDS011;12936;52.006;4.350;2022-09-24T14:31:19;6.07;;;1.45;;
24859;SDS011;12936;52.006;4.350;2022-09-24T14:33:49;5.72;;;0.88;;
24859;SDS011;12936;52.006;4.350;2022-09-24T14:36:18;6.47;;;1.00;;
24859;SDS011;12936;52.006;4.350;2022-09-24T14:38:55;5.45;;;0.88;;
24859;SDS011;12936;52.006;4.350;2022-09-24T14:41:24;5.28;;;0.88;;
24859;SDS011;12936;52.006;4.350;2022-09-24T14:43:56;3.35;;;0.82;;
24859;SDS011;12936;52.006;4.350;2022-09-24T14:46:27;5.45;;;1.10;;
24859;SDS011;12936;52.006;4.350;2022-09-24T14:49:04;8.15;;;1.00;;
24859;SDS011;12936;52.006;4.350;2022-09-24T14:51:32;3.50;;;0.60;;
24859;SDS011;12936;52.006;4.350;2022-09-24T14:54:19;5.80;;;1.05;;
24859;SDS011;12936;52.006;4.350;2022-09-24T14:56:48;2.38;;;0.70;;
24859;SDS011;12936;52.006;4.350;2022-09-24T14:59:25;2.58;;;0.80;;
24859;SDS011;12936;52.006;4.350;2022-09-24T15:02:01;4.05;;;0.90;;
24859;SDS011;12936;52.006;4.350;2022-09-24T15:04:32;3.20;;;0.68;;
24859;SDS011;12936;52.006;4.350;2022-09-24T15:07:01;4.65;;;1.10;;
24859;SDS011;12936;52.006;4.350;2022-09-24T15:09:29;6.45;;;0.43;;
24859;SDS011;12936;52.006;4.350;2022-09-24T15:12:05;4.25;;;0.98;;
24859;SDS011;12936;52.006;4.350;2022-09-24T15:14:33;3.03;;;0.80;;